Time;durP1;ratioP1;P1;durP2;ratioP2;P2;SDS_P1;SDS_P2;PMS_P1;PMS_P2;Temp;Humidity;BMP_temperature;BMP_pressure;BME280_temperature;BME280_humidity;BME280_pressure;Samples;Min_cycle;Max_cycle;Signal;HPM_P1;HPM_P2
2021/06/16 00:01:47;;;;;;;3.43;2.50;;;15.70;99.90;;;;;;4979913;28;20180;-83
2021/06/16 00:04:12;;;;;;;3.97;2.60;;;15.60;99.90;;;;;;4962379;28;20684;-83
2021/06/16 00:06:38;;;;;;;2.90;2.60;;;15.60;99.90;;;;;;4961972;28;20568;-83
2021/06/16 00:09:05;;;;;;;3.90;2.63;;;15.50;99.90;;;;;;4962733;28;20176;-83
2021/06/16 00:11:32;;;;;;;7.23;2.60;;;15.40;99.90;;;;;;4980616;28;20176;-83
2021/06/16 00:13:58;;;;;;;3.33;2.53;;;15.30;99.90;;;;;;4979969;28;20247;-84
2021/06/16 00:16:24;;;;;;;5.50;3.17;;;15.20;99.90;;;;;;4980337;28;20203;-83
2021/06/16 00:18:50;;;;;;;5.50;2.50;;;15.10;99.90;;;;;;4962820;28;20172;-83
2021/06/16 00:21:16;;;;;;;4.63;3.07;;;15.10;99.90;;;;;;4962485;28;20188;-83
2021/06/16 00:23:42;;;;;;;4.20;2.70;;;15.10;99.90;;;;;;4963637;28;20181;-83
2021/06/16 00:26:15;;;;;;;5.03;2.83;;;15.10;99.90;;;;;;4969127;28;20219;-83
2021/06/16 00:28:42;;;;;;;3.63;2.93;;;15.10;99.90;;;;;;4981525;28;20615;-84
2021/06/16 00:31:07;;;;;;;4.03;2.83;;;15.10;99.90;;;;;;4967350;28;20549;-83
2021/06/16 00:33:33;;;;;;;3.57;2.83;;;15.10;99.90;;;;;;4974823;28;20172;-83
2021/06/16 00:35:59;;;;;;;5.53;3.30;;;15.10;99.90;;;;;;4967677;28;20184;-82
2021/06/16 00:38:26;;;;;;;5.57;2.90;;;15.10;99.90;;;;;;4965867;28;20556;-83
2021/06/16 00:40:52;;;;;;;7.27;3.20;;;15.10;99.90;;;;;;4966567;28;20196;-83
2021/06/16 00:43:18;;;;;;;5.03;3.30;;;15.10;99.90;;;;;;4984194;28;20184;-83
2021/06/16 00:45:43;;;;;;;4.50;3.17;;;15.10;99.90;;;;;;4966854;28;20643;-83
2021/06/16 00:48:09;;;;;;;3.07;2.77;;;15.10;99.90;;;;;;4966750;28;20292;-83
2021/06/16 00:50:37;;;;;;;5.37;3.63;;;15.00;99.90;;;;;;4983960;28;20180;-83
2021/06/16 00:53:05;;;;;;;5.00;3.37;;;15.00;99.90;;;;;;4965685;28;20184;-83
2021/06/16 00:55:31;;;;;;;4.97;3.10;;;15.00;99.90;;;;;;4966257;28;20180;-83
2021/06/16 00:57:58;;;;;;;3.73;2.73;;;15.00;99.90;;;;;;4983810;28;20275;-83
2021/06/16 01:00:30;;;;;;;4.73;3.47;;;15.00;99.90;;;;;;4983477;28;20280;-83
2021/06/16 01:03:06;;;;;;;3.47;3.13;;;15.00;99.90;;;;;;4966464;28;20188;-83
2021/06/16 01:05:49;;;;;;;5.30;3.27;;;15.00;99.90;;;;;;4965994;28;20704;-83
2021/06/16 01:08:25;;;;;;;3.87;2.90;;;15.00;99.90;;;;;;4966261;28;20204;-83
2021/06/16 01:10:53;;;;;;;8.93;2.90;;;15.00;99.90;;;;;;4983517;28;20194;-83
2021/06/16 01:13:25;;;;;;;5.97;3.37;;;15.00;99.90;;;;;;4984496;28;20231;-83
2021/06/16 01:16:09;;;;;;;3.77;3.07;;;15.00;99.90;;;;;;4966420;28;20188;-83
2021/06/16 01:18:51;;;;;;;3.83;2.83;;;14.90;99.90;;;;;;4966312;28;20641;-83
2021/06/16 01:21:18;;;;;;;3.70;2.87;;;15.00;99.90;;;;;;4966438;28;20208;-83
2021/06/16 01:23:43;;;;;;;4.67;2.53;;;15.00;99.90;;;;;;4965879;28;20184;-83
2021/06/16 01:26:21;;;;;;;3.63;2.67;;;15.00;99.90;;;;;;4983835;28;20604;-83
2021/06/16 01:28:47;;;;;;;3.50;2.67;;;14.90;99.90;;;;;;4966055;28;20180;-83
2021/06/16 01:31:18;;;;;;;4.53;2.77;;;14.90;99.90;;;;;;4965817;28;20180;-83
2021/06/16 01:33:45;;;;;;;4.63;2.93;;;14.90;99.90;;;;;;4984491;28;20227;-83
2021/06/16 01:36:12;;;;;;;5.50;3.07;;;14.90;99.90;;;;;;4984262;28;20200;-83
2021/06/16 01:38:38;;;;;;;4.53;3.00;;;14.90;99.90;;;;;;4984981;28;20180;-82
2021/06/16 01:41:06;;;;;;;4.30;2.90;;;14.90;99.90;;;;;;4966640;28;20221;-83
2021/06/16 01:43:33;;;;;;;5.73;3.10;;;14.80;99.90;;;;;;4984982;28;20642;-83
2021/06/16 01:46:01;;;;;;;7.67;3.60;;;14.80;99.90;;;;;;4967552;28;20212;-83
2021/06/16 01:48:28;;;;;;;4.67;3.67;;;14.70;99.90;;;;;;4967368;28;20183;-83
2021/06/16 01:50:55;;;;;;;4.70;3.63;;;14.80;99.90;;;;;;4983842;28;20180;-83
2021/06/16 01:53:22;;;;;;;4.77;3.30;;;14.80;99.90;;;;;;4967064;28;20271;-83
2021/06/16 01:55:48;;;;;;;5.93;3.60;;;14.70;99.90;;;;;;4981244;28;20180;-83
2021/06/16 01:58:17;;;;;;;8.53;3.50;;;14.70;99.90;;;;;;4981341;28;20184;-82
2021/06/16 02:00:43;;;;;;;8.67;3.43;;;14.70;99.90;;;;;;4980546;28;20584;-82
2021/06/16 02:03:09;;;;;;;7.20;3.10;;;14.60;99.90;;;;;;4963000;28;20191;-82
2021/06/16 02:05:36;;;;;;;5.60;3.27;;;14.70;99.90;;;;;;4980035;28;20236;-82
2021/06/16 02:08:06;;;;;;;4.50;3.03;;;14.60;99.90;;;;;;4962431;28;20207;-83
2021/06/16 02:10:45;;;;;;;6.00;2.87;;;14.60;99.90;;;;;;4963798;28;20215;-83
2021/06/16 02:13:12;;;;;;;4.60;3.03;;;14.60;99.90;;;;;;4970240;28;20184;-83
2021/06/16 02:16:29;;;;;;;4.03;3.00;;;14.60;99.90;;;;;;4967260;28;20259;-83
2021/06/16 02:19:26;;;;;;;6.97;2.87;;;14.60;99.90;;;;;;4924198;28;20216;-83
2021/06/16 02:21:56;;;;;;;3.80;2.90;;;14.60;99.90;;;;;;4951000;28;20643;-83
2021/06/16 02:24:24;;;;;;;3.57;2.90;;;14.60;99.90;;;;;;4983772;28;20168;-83
2021/06/16 02:26:50;;;;;;;5.70;2.60;;;14.50;99.90;;;;;;4967423;28;20208;-84
2021/06/16 02:29:16;;;;;;;3.47;2.63;;;14.60;99.90;;;;;;4967124;28;20184;-83
2021/06/16 02:31:43;;;;;;;4.33;3.10;;;14.50;99.90;;;;;;4981690;28;20184;-83
2021/06/16 02:34:09;;;;;;;3.57;2.83;;;14.50;99.90;;;;;;4994512;28;20247;-84
2021/06/16 02:36:46;;;;;;;4.27;2.90;;;14.50;99.90;;;;;;4984843;28;20208;-83
2021/06/16 02:39:15;;;;;;;4.67;3.17;;;14.60;99.90;;;;;;4985110;28;20310;-83
2021/06/16 02:41:42;;;;;;;3.97;2.70;;;14.60;99.90;;;;;;4966720;28;20188;-84
2021/06/16 02:44:09;;;;;;;2.87;2.50;;;14.60;99.90;;;;;;4967053;28;20196;-83
2021/06/16 02:46:36;;;;;;;4.97;3.33;;;14.60;99.90;;;;;;4967375;28;20295;-84
2021/06/16 02:49:04;;;;;;;3.87;2.73;;;14.50;99.90;;;;;;4984393;28;20168;-83
2021/06/16 02:51:32;;;;;;;4.90;2.60;;;14.50;99.90;;;;;;4967122;28;20180;-84
2021/06/16 02:54:00;;;;;;;4.60;2.97;;;14.50;99.90;;;;;;4966595;28;20247;-83
2021/06/16 02:56:26;;;;;;;3.53;2.90;;;14.50;99.90;;;;;;4967504;28;20235;-83
2021/06/16 02:58:53;;;;;;;5.20;2.70;;;14.50;99.90;;;;;;4983611;28;20208;-83
2021/06/16 03:01:20;;;;;;;3.43;3.00;;;14.50;99.90;;;;;;4984174;28;20180;-83
2021/06/16 03:03:52;;;;;;;6.10;3.00;;;14.50;99.90;;;;;;4967330;28;20196;-83
2021/06/16 03:06:22;;;;;;;4.07;2.73;;;14.50;99.90;;;;;;4984034;28;20715;-83
2021/06/16 03:08:51;;;;;;;3.67;2.97;;;14.50;99.90;;;;;;4967263;28;20172;-83
2021/06/16 03:11:17;;;;;;;7.53;3.07;;;14.50;99.90;;;;;;4968116;28;20263;-83
2021/06/16 03:13:45;;;;;;;8.60;3.80;;;14.40;99.90;;;;;;4985979;28;20188;-83
2021/06/16 03:16:13;;;;;;;4.10;3.07;;;14.40;99.90;;;;;;4985010;28;20218;-83
2021/06/16 03:18:38;;;;;;;6.73;3.20;;;14.40;99.90;;;;;;4968234;28;20256;-83
2021/06/16 03:21:05;;;;;;;4.17;3.07;;;14.40;99.90;;;;;;4968491;28;20196;-83
2021/06/16 03:23:31;;;;;;;7.60;3.20;;;14.40;99.90;;;;;;4968943;28;20191;-83
2021/06/16 03:25:58;;;;;;;4.63;3.33;;;14.40;99.90;;;;;;4967314;28;20204;-83
2021/06/16 03:28:26;;;;;;;4.80;3.60;;;14.30;99.90;;;;;;4985927;28;20176;-83
2021/06/16 03:30:55;;;;;;;5.87;3.00;;;14.40;99.90;;;;;;4997853;28;20184;-82
2021/06/16 03:33:21;;;;;;;10.27;3.40;;;14.40;99.90;;;;;;4974420;28;20256;-83
2021/06/16 03:35:47;;;;;;;4.63;3.50;;;14.40;99.90;;;;;;4980417;28;20184;-83
2021/06/16 03:38:14;;;;;;;4.03;3.50;;;14.30;99.90;;;;;;4980770;28;20177;-83
2021/06/16 03:40:42;;;;;;;5.53;2.77;;;14.40;99.90;;;;;;4962500;28;20187;-83
2021/06/16 03:43:08;;;;;;;4.80;3.03;;;14.30;99.90;;;;;;4962921;28;20292;-83
2021/06/16 03:45:35;;;;;;;3.30;2.87;;;14.30;99.90;;;;;;4980047;28;20200;-84
2021/06/16 03:48:03;;;;;;;5.33;3.20;;;14.40;99.90;;;;;;4962678;28;20568;-83
2021/06/16 03:50:29;;;;;;;4.63;2.97;;;14.40;99.90;;;;;;4979727;28;20180;-83
2021/06/16 03:52:55;;;;;;;4.90;3.00;;;14.40;99.90;;;;;;4980186;28;20231;-83
2021/06/16 03:55:22;;;;;;;4.43;2.93;;;14.40;99.90;;;;;;4962663;28;20544;-83
2021/06/16 03:57:49;;;;;;;3.30;3.00;;;14.40;99.90;;;;;;4980228;28;20227;-83
2021/06/16 04:00:15;;;;;;;3.20;2.70;;;14.40;99.90;;;;;;4980507;28;20184;-83
2021/06/16 04:02:41;;;;;;;6.73;3.10;;;14.50;99.90;;;;;;4980490;28;20330;-83
2021/06/16 04:05:09;;;;;;;5.83;3.20;;;14.50;99.90;;;;;;4965232;28;20678;-83
2021/06/16 04:07:36;;;;;;;4.57;2.90;;;14.50;99.90;;;;;;4966850;28;20200;-83
2021/06/16 04:10:04;;;;;;;5.73;2.83;;;14.50;99.90;;;;;;4966682;28;20207;-84
2021/06/16 04:12:31;;;;;;;4.53;2.83;;;14.50;99.90;;;;;;4984906;28;20177;-83
2021/06/16 04:14:56;;;;;;;6.27;2.73;;;14.60;99.90;;;;;;4984258;28;20227;-83
2021/06/16 04:17:23;;;;;;;3.80;2.83;;;14.60;99.90;;;;;;4967470;28;20199;-83
2021/06/16 04:19:50;;;;;;;5.17;2.80;;;14.70;99.90;;;;;;4984643;28;20172;-83
2021/06/16 04:22:17;;;;;;;4.63;2.83;;;14.70;99.90;;;;;;4967777;28;20180;-83
2021/06/16 04:24:43;;;;;;;3.83;2.73;;;14.70;99.90;;;;;;4984429;28;20199;-83
2021/06/16 04:27:09;;;;;;;3.27;2.87;;;14.80;99.90;;;;;;4985688;28;20283;-83
2021/06/16 04:29:35;;;;;;;7.23;2.60;;;14.80;99.90;;;;;;4967571;28;20182;-83
2021/06/16 04:32:01;;;;;;;3.00;2.50;;;14.90;99.90;;;;;;4967509;28;20173;-83
2021/06/16 04:34:28;;;;;;;3.60;2.60;;;14.90;99.90;;;;;;4967018;28;20227;-84
2021/06/16 04:36:54;;;;;;;4.77;2.93;;;15.00;99.90;;;;;;4985155;28;20188;-83
2021/06/16 04:39:19;;;;;;;4.23;2.40;;;15.00;99.90;;;;;;4967013;28;20184;-83
2021/06/16 04:41:45;;;;;;;3.50;2.57;;;15.10;99.90;;;;;;4966216;28;20185;-82
2021/06/16 04:44:11;;;;;;;4.87;2.63;;;15.10;99.90;;;;;;4965849;28;20191;-83
2021/06/16 04:46:37;;;;;;;3.80;2.63;;;15.20;99.90;;;;;;4985012;28;20216;-83
2021/06/16 04:49:03;;;;;;;3.07;2.43;;;15.20;99.90;;;;;;4987522;28;20182;-83
2021/06/16 04:51:29;;;;;;;4.53;2.53;;;15.30;99.90;;;;;;4984490;28;20208;-83
2021/06/16 04:53:55;;;;;;;4.60;2.57;;;15.30;99.90;;;;;;4985386;28;20535;-83
2021/06/16 04:56:21;;;;;;;3.90;2.50;;;15.30;99.90;;;;;;4966661;28;20208;-83
2021/06/16 04:58:46;;;;;;;4.77;2.67;;;15.40;99.90;;;;;;4965853;28;20188;-83
2021/06/16 05:01:12;;;;;;;3.57;2.47;;;15.40;99.90;;;;;;4983723;28;20541;-83
2021/06/16 05:03:38;;;;;;;2.80;2.50;;;15.50;99.90;;;;;;4966804;28;20204;-83
2021/06/16 05:06:04;;;;;;;3.73;2.30;;;15.50;99.90;;;;;;4983997;28;20692;-83
2021/06/16 05:08:30;;;;;;;3.47;2.53;;;15.50;99.90;;;;;;4971310;28;20165;-82
2021/06/16 05:10:56;;;;;;;4.63;2.40;;;15.60;99.90;;;;;;5000746;28;20170;-82
2021/06/16 05:13:23;;;;;;;3.83;2.67;;;15.60;99.90;;;;;;4975127;28;20573;-82
2021/06/16 05:15:50;;;;;;;4.27;2.90;;;15.70;99.90;;;;;;4962608;28;20256;-83
2021/06/16 05:18:17;;;;;;;4.80;3.20;;;15.70;99.90;;;;;;4964179;28;20697;-83
2021/06/16 05:20:43;;;;;;;3.87;2.60;;;15.80;99.90;;;;;;4981554;28;20262;-83
2021/06/16 05:23:09;;;;;;;3.50;2.37;;;15.90;99.90;;;;;;4965156;28;20276;-83
2021/06/16 05:25:34;;;;;;;3.37;2.43;;;16.00;99.90;;;;;;4965272;28;20231;-82
2021/06/16 05:28:00;;;;;;;2.50;2.30;;;16.00;99.90;;;;;;4963787;28;20200;-83
2021/06/16 05:30:26;;;;;;;3.23;2.43;;;16.10;99.90;;;;;;4966869;28;20701;-85
2021/06/16 05:32:52;;;;;;;4.80;2.30;;;16.10;99.90;;;;;;4985196;28;20185;-86
2021/06/16 05:35:18;;;;;;;4.13;2.43;;;16.20;99.90;;;;;;4987230;28;20212;-84
2021/06/16 05:37:46;;;;;;;3.27;2.40;;;16.30;99.90;;;;;;4971997;28;20206;-85
2021/06/16 05:40:13;;;;;;;5.77;2.40;;;16.30;99.90;;;;;;4971447;28;20257;-84
2021/06/16 05:42:39;;;;;;;3.97;2.20;;;16.40;99.90;;;;;;4987118;28;20177;-84
2021/06/16 05:45:07;;;;;;;6.53;2.90;;;16.40;99.90;;;;;;4985528;28;20229;-85
2021/06/16 05:47:34;;;;;;;5.47;2.73;;;16.50;99.90;;;;;;4967436;28;20197;-84
2021/06/16 05:50:02;;;;;;;7.83;2.77;;;16.50;99.90;;;;;;4966870;28;20812;-82
2021/06/16 05:52:28;;;;;;;3.23;2.33;;;16.60;99.90;;;;;;4966804;28;20259;-84
2021/06/16 05:54:54;;;;;;;7.80;2.40;;;16.50;99.90;;;;;;4985781;28;20185;-85
2021/06/16 05:57:19;;;;;;;5.40;2.53;;;16.60;99.90;;;;;;4987413;28;20205;-85
2021/06/16 05:59:45;;;;;;;6.17;2.97;;;16.70;99.90;;;;;;4968676;28;20187;-85
2021/06/16 06:02:11;;;;;;;5.53;2.40;;;16.80;99.90;;;;;;4969687;28;20194;-84
2021/06/16 06:04:38;;;;;;;3.53;2.43;;;16.90;99.90;;;;;;4987286;28;20177;-83
2021/06/16 06:07:05;;;;;;;3.00;2.27;;;16.90;99.90;;;;;;4966301;28;20233;-83
2021/06/16 06:09:31;;;;;;;5.00;2.57;;;17.10;99.90;;;;;;4963513;28;20177;-83
2021/06/16 06:11:58;;;;;;;4.30;2.40;;;17.20;99.90;;;;;;4964666;28;20199;-83
2021/06/16 06:14:24;;;;;;;5.20;2.43;;;17.40;99.90;;;;;;4981195;28;20221;-82
2021/06/16 06:16:50;;;;;;;3.97;2.50;;;17.50;99.90;;;;;;4981179;28;20197;-83
2021/06/16 06:19:15;;;;;;;4.83;2.40;;;17.60;99.90;;;;;;4964218;28;20189;-83
2021/06/16 06:21:41;;;;;;;5.10;2.60;;;17.70;99.90;;;;;;4964016;28;20237;-83
2021/06/16 06:24:07;;;;;;;4.03;2.37;;;17.90;99.90;;;;;;4963983;28;20190;-83
2021/06/16 06:26:33;;;;;;;4.03;2.27;;;18.00;99.90;;;;;;4981022;28;20680;-83
2021/06/16 06:28:59;;;;;;;4.83;2.20;;;18.10;99.90;;;;;;4964179;28;20188;-83
2021/06/16 06:31:25;;;;;;;6.97;2.43;;;18.20;99.90;;;;;;4982681;28;20189;-83
2021/06/16 06:33:51;;;;;;;5.00;2.50;;;18.30;99.90;;;;;;4983235;28;20184;-83
2021/06/16 06:36:19;;;;;;;5.43;2.67;;;18.40;99.90;;;;;;4966310;28;20273;-83
2021/06/16 06:38:45;;;;;;;3.50;2.07;;;18.40;99.90;;;;;;4966631;28;20664;-83
2021/06/16 06:41:12;;;;;;;3.33;2.63;;;18.50;99.90;;;;;;4984582;28;20596;-83
2021/06/16 06:43:38;;;;;;;5.43;2.50;;;18.60;99.90;;;;;;4967433;28;20187;-83
2021/06/16 06:46:04;;;;;;;4.07;2.60;;;18.60;99.90;;;;;;4982643;28;20207;-83
2021/06/16 06:48:29;;;;;;;5.33;2.47;;;18.70;99.90;;;;;;4969469;28;20240;-83
2021/06/16 06:50:55;;;;;;;3.83;2.20;;;18.80;99.90;;;;;;4972566;28;20187;-83
2021/06/16 06:53:22;;;;;;;7.40;2.30;;;19.00;99.90;;;;;;4966185;28;20179;-83
2021/06/16 06:55:48;;;;;;;3.13;2.40;;;19.10;99.90;;;;;;4964670;28;20184;-83
2021/06/16 06:58:13;;;;;;;5.63;2.50;;;19.20;99.90;;;;;;4964581;28;20182;-83
2021/06/16 07:00:39;;;;;;;4.90;2.50;;;19.40;99.90;;;;;;4964409;28;20672;-83
2021/06/16 07:03:06;;;;;;;4.00;2.53;;;19.50;99.90;;;;;;4965283;28;20188;-83
2021/06/16 07:05:31;;;;;;;5.10;2.37;;;19.70;99.90;;;;;;4966339;28;20214;-83
2021/06/16 07:07:57;;;;;;;3.63;2.20;;;19.90;99.90;;;;;;4968621;28;20287;-83
2021/06/16 07:10:23;;;;;;;4.17;2.67;;;20.00;99.90;;;;;;4966113;28;20619;-83
2021/06/16 07:12:49;;;;;;;4.43;2.83;;;20.20;99.90;;;;;;4964873;28;20275;-83
2021/06/16 07:15:14;;;;;;;3.43;2.13;;;20.30;99.90;;;;;;4981272;28;20195;-84
2021/06/16 07:17:41;;;;;;;6.10;2.93;;;20.40;99.90;;;;;;4963698;28;20211;-83
2021/06/16 07:20:07;;;;;;;3.10;2.33;;;20.50;99.90;;;;;;4964287;28;20195;-84
2021/06/16 07:22:33;;;;;;;4.67;2.60;;;20.60;99.90;;;;;;4967130;28;20191;-84
2021/06/16 07:24:59;;;;;;;4.70;2.43;;;20.70;99.90;;;;;;4965039;28;20200;-85
2021/06/16 07:27:25;;;;;;;3.57;2.17;;;20.80;99.90;;;;;;4965587;28;20227;-84
2021/06/16 07:29:51;;;;;;;5.80;2.10;;;20.90;99.90;;;;;;4965631;28;20184;-85
2021/06/16 07:32:17;;;;;;;3.47;1.93;;;21.00;99.90;;;;;;4982493;28;20177;-85
2021/06/16 07:34:43;;;;;;;2.63;2.10;;;21.20;99.90;;;;;;4967016;28;20270;-84
2021/06/16 07:37:09;;;;;;;3.40;2.33;;;21.40;99.90;;;;;;4969962;28;20207;-84
2021/06/16 07:39:34;;;;;;;4.77;2.20;;;21.50;99.90;;;;;;4985092;28;20164;-84
2021/06/16 07:42:00;;;;;;;5.07;2.40;;;21.60;99.90;;;;;;4981916;28;20186;-84
2021/06/16 07:44:26;;;;;;;2.70;2.33;;;21.80;99.90;;;;;;4965505;28;20183;-84
2021/06/16 07:46:52;;;;;;;3.17;2.30;;;21.90;99.90;;;;;;4972934;28;20305;-84
2021/06/16 07:49:19;;;;;;;4.10;2.33;;;22.10;99.90;;;;;;4996993;28;20196;-83
2021/06/16 07:51:45;;;;;;;7.73;2.27;;;22.20;99.90;;;;;;4981895;28;20185;-83
2021/06/16 07:54:13;;;;;;;8.27;2.40;;;22.30;99.90;;;;;;4979998;28;20235;-83
2021/06/16 07:56:40;;;;;;;4.77;2.30;;;22.60;99.90;;;;;;4962259;28;20690;-83
2021/06/16 07:59:07;;;;;;;2.50;2.10;;;22.80;99.90;;;;;;4962712;28;20290;-84
2021/06/16 08:01:33;;;;;;;3.13;2.40;;;23.10;99.90;;;;;;4979398;28;20609;-84
2021/06/16 08:03:59;;;;;;;3.93;2.80;;;23.30;99.90;;;;;;4961836;28;20213;-84
2021/06/16 08:06:24;;;;;;;4.23;2.30;;;23.50;99.90;;;;;;4962212;28;20255;-84
2021/06/16 08:08:50;;;;;;;7.33;2.77;;;23.70;99.90;;;;;;4962410;28;20178;-84
2021/06/16 08:11:16;;;;;;;4.60;2.77;;;23.90;99.90;;;;;;4961843;28;20191;-84
2021/06/16 08:13:41;;;;;;;5.40;2.43;;;24.00;99.90;;;;;;4979478;28;20191;-84
2021/06/16 08:16:07;;;;;;;4.40;2.47;;;24.20;99.90;;;;;;4978462;28;20203;-84
2021/06/16 08:18:33;;;;;;;3.70;1.97;;;24.20;99.90;;;;;;4978286;28;20527;-84
2021/06/16 08:20:59;;;;;;;5.93;2.60;;;24.30;99.90;;;;;;4978612;28;20209;-83
2021/06/16 08:23:25;;;;;;;6.93;3.17;;;24.30;99.90;;;;;;4961293;28;20195;-85
2021/06/16 08:25:51;;;;;;;3.70;2.47;;;24.50;99.90;;;;;;4960898;28;20231;-85
2021/06/16 08:28:17;;;;;;;7.67;2.60;;;24.60;99.90;;;;;;4961192;28;20181;-84
2021/06/16 08:30:43;;;;;;;7.53;2.47;;;24.60;99.90;;;;;;4961189;28;20188;-84
2021/06/16 08:33:09;;;;;;;3.73;2.50;;;24.80;99.90;;;;;;4960201;28;20669;-85
2021/06/16 08:35:36;;;;;;;4.73;1.97;;;24.90;99.90;;;;;;4959814;28;20185;-85
2021/06/16 08:38:03;;;;;;;4.03;1.93;;;24.90;99.90;;;;;;4959823;28;20620;-84
2021/06/16 08:40:29;;;;;;;5.70;1.83;;;25.20;99.90;;;;;;4977598;28;20173;-84
2021/06/16 08:42:55;;;;;;;7.67;2.27;;;25.30;99.90;;;;;;4977520;28;20187;-84
2021/06/16 08:45:21;;;;;;;7.77;2.40;;;25.50;99.00;;;;;;4959998;28;20243;-84
2021/06/16 08:47:48;;;;;;;5.83;2.13;;;25.70;99.90;;;;;;4960295;28;20210;-85
2021/06/16 08:50:15;;;;;;;6.70;2.20;;;25.90;98.30;;;;;;4976968;28;20204;-84
2021/06/16 08:52:41;;;;;;;3.70;1.70;;;26.00;96.30;;;;;;4962627;28;20241;-84
2021/06/16 08:55:10;;;;;;;3.27;1.63;;;26.20;97.80;;;;;;4979963;28;20217;-84
2021/06/16 08:57:36;;;;;;;4.73;1.70;;;26.30;97.00;;;;;;4962774;28;20290;-83
2021/06/16 09:00:04;;;;;;;2.47;1.77;;;26.40;94.20;;;;;;4980324;28;20179;-84
2021/06/16 09:02:30;;;;;;;3.10;1.60;;;26.50;95.40;;;;;;4980643;28;20187;-84
2021/06/16 09:04:56;;;;;;;4.13;1.60;;;26.60;92.70;;;;;;4979947;28;20211;-84
2021/06/16 09:07:24;;;;;;;3.30;1.60;;;26.70;94.00;;;;;;4963012;28;20208;-84
2021/06/16 09:10:04;;;;;;;4.17;1.93;;;26.80;95.10;;;;;;4980324;28;20605;-84
2021/06/16 09:12:34;;;;;;;3.13;1.70;;;26.90;90.40;;;;;;4980447;28;20165;-84
2021/06/16 09:15:00;;;;;;;5.23;1.53;;;26.80;90.70;;;;;;4962707;28;20204;-84
2021/06/16 09:17:26;;;;;;;2.97;1.90;;;26.90;93.50;;;;;;4962083;28;20212;-84
2021/06/16 09:19:57;;;;;;;4.60;1.73;;;26.90;88.40;;;;;;4979655;28;20191;-84
2021/06/16 09:22:32;;;;;;;1.83;1.63;;;26.90;93.20;;;;;;4963923;28;20188;-84
2021/06/16 09:25:00;;;;;;;8.13;2.00;;;27.00;91.50;;;;;;4962950;28;20203;-85
2021/06/16 09:27:46;;;;;;;3.60;1.90;;;27.20;93.20;;;;;;4962511;28;20207;-83
2021/06/16 09:30:24;;;;;;;3.20;2.17;;;27.40;91.30;;;;;;4962834;28;20200;-83
2021/06/16 09:32:53;;;;;;;2.57;1.40;;;27.60;90.00;;;;;;4983715;28;20177;-83
2021/06/16 09:35:19;;;;;;;4.63;1.50;;;27.80;87.50;;;;;;4965658;28;20186;-84
2021/06/16 09:37:45;;;;;;;6.87;1.77;;;28.00;85.40;;;;;;4966277;28;20212;-83
2021/06/16 09:40:11;;;;;;;4.03;1.60;;;28.20;84.10;;;;;;4966430;28;20267;-85
2021/06/16 09:42:37;;;;;;;6.07;1.77;;;28.30;82.10;;;;;;4983669;28;20189;-84
2021/06/16 09:45:03;;;;;;;1.77;1.40;;;28.40;84.60;;;;;;4983569;28;20200;-84
2021/06/16 09:47:31;;;;;;;5.37;1.57;;;28.60;87.20;;;;;;4965488;28;20199;-84
2021/06/16 09:50:02;;;;;;;1.70;1.33;;;28.60;84.70;;;;;;4966327;28;20191;-84
2021/06/16 09:52:38;;;;;;;5.20;1.67;;;28.60;81.30;;;;;;4983460;28;20178;-84
2021/06/16 09:55:29;;;;;;;3.20;1.77;;;28.60;81.10;;;;;;4988431;28;20159;-84
2021/06/16 09:58:08;;;;;;;5.57;1.87;;;28.60;82.10;;;;;;4982906;28;20201;-84
2021/06/16 10:00:43;;;;;;;3.10;1.60;;;28.60;80.40;;;;;;4965625;28;20189;-84
2021/06/16 10:03:13;;;;;;;3.10;1.37;;;28.60;77.20;;;;;;4966216;28;20193;-85
2021/06/16 10:06:16;;;;;;;1.93;1.40;;;28.80;80.60;;;;;;4983940;28;20201;-85
2021/06/16 10:08:43;;;;;;;3.07;1.50;;;29.10;79.10;;;;;;4985942;28;20209;-85
2021/06/16 10:11:11;;;;;;;2.77;1.60;;;29.30;69.90;;;;;;4984352;28;20193;-84
2021/06/16 10:13:37;;;;;;;3.27;1.80;;;29.50;75.20;;;;;;4966657;28;20201;-85
2021/06/16 10:16:03;;;;;;;3.20;1.50;;;29.60;81.10;;;;;;4984243;28;20168;-85
2021/06/16 10:18:33;;;;;;;2.07;1.50;;;29.80;80.80;;;;;;4984738;28;20180;-85
2021/06/16 10:20:59;;;;;;;4.03;1.60;;;29.60;70.50;;;;;;4967154;28;20673;-85
2021/06/16 10:23:25;;;;;;;3.67;1.63;;;29.60;75.60;;;;;;4984737;28;20179;-85
2021/06/16 10:25:57;;;;;;;6.10;1.93;;;29.80;76.20;;;;;;4993387;28;20306;-81
2021/06/16 10:28:24;;;;;;;4.03;1.57;;;30.00;68.60;;;;;;4972167;28;20179;-83
2021/06/16 10:30:55;;;;;;;6.10;1.63;;;30.10;82.50;;;;;;4965963;28;20178;-83
2021/06/16 10:33:37;;;;;;;2.23;1.43;;;30.20;72.70;;;;;;4966287;28;20180;-83
2021/06/16 10:36:15;;;;;;;6.57;1.83;;;30.30;67.90;;;;;;4965108;28;20177;-82
2021/06/16 10:38:45;;;;;;;2.20;1.60;;;30.50;78.90;;;;;;4965642;28;20180;-83
2021/06/16 10:41:11;;;;;;;2.60;1.33;;;30.40;71.20;;;;;;4966071;28;20186;-82
2021/06/16 10:43:38;;;;;;;1.57;1.30;;;30.50;63.90;;;;;;4980597;28;20169;-83
2021/06/16 10:46:15;;;;;;;2.07;1.30;;;30.50;68.50;;;;;;4962560;28;20570;-83
2021/06/16 10:48:58;;;;;;;2.13;1.50;;;30.60;63.20;;;;;;4963819;28;20222;-83
2021/06/16 10:51:31;;;;;;;4.27;1.30;;;30.60;62.40;;;;;;4974984;28;20172;-82
2021/06/16 10:54:15;;;;;;;4.57;1.40;;;30.80;59.50;;;;;;4965304;28;20171;-84
2021/06/16 10:57:05;;;;;;;2.67;1.20;;;31.10;66.40;;;;;;4981699;28;20632;-84
2021/06/16 10:59:43;;;;;;;4.50;1.50;;;31.20;58.90;;;;;;4964114;28;20202;-83
2021/06/16 11:02:14;;;;;;;1.57;1.40;;;31.50;60.90;;;;;;4964633;28;20184;-83
2021/06/16 11:04:41;;;;;;;2.47;1.20;;;31.50;61.60;;;;;;4964754;28;20270;-84
2021/06/16 11:07:32;;;;;;;4.03;1.30;;;31.50;58.70;;;;;;4964012;28;20249;-85
2021/06/16 11:09:59;;;;;;;2.90;1.30;;;31.40;57.80;;;;;;4963549;28;20185;-84
2021/06/16 11:12:32;;;;;;;1.43;1.20;;;31.50;66.20;;;;;;4981226;28;20174;-85
2021/06/16 11:15:03;;;;;;;4.30;1.40;;;31.60;59.10;;;;;;4964156;28;20209;-85
2021/06/16 11:17:34;;;;;;;2.83;1.27;;;31.80;55.80;;;;;;4964573;28;20202;-84
2021/06/16 11:20:06;;;;;;;3.30;1.20;;;32.00;60.40;;;;;;4983850;28;20237;-85
2021/06/16 11:22:35;;;;;;;2.63;1.30;;;32.10;64.90;;;;;;4982587;28;20265;-84
2021/06/16 11:25:07;;;;;;;1.80;1.40;;;32.30;57.10;;;;;;4963784;28;20268;-82
2021/06/16 11:27:54;;;;;;;2.33;1.30;;;32.70;59.70;;;;;;4963442;28;20237;-84
2021/06/16 11:30:31;;;;;;;4.27;1.70;;;33.00;59.00;;;;;;4980967;28;20522;-84
2021/06/16 11:33:15;;;;;;;3.30;1.50;;;33.10;59.50;;;;;;4964107;28;20644;-83
2021/06/16 11:35:42;;;;;;;2.63;1.30;;;33.10;57.90;;;;;;4963613;28;20193;-84
2021/06/16 11:38:09;;;;;;;2.67;1.70;;;33.10;56.80;;;;;;4963607;28;20207;-82
2021/06/16 11:40:35;;;;;;;2.80;1.40;;;33.30;57.50;;;;;;4962744;28;20533;-81
2021/06/16 11:43:01;;;;;;;4.00;1.97;;;33.50;61.80;;;;;;4961506;28;20184;-81
2021/06/16 11:45:31;;;;;;;2.10;1.60;;;33.80;58.60;;;;;;4961788;28;20206;-83
2021/06/16 11:48:00;;;;;;;2.77;1.10;;;33.80;63.60;;;;;;4962855;28;20235;-83
2021/06/16 11:50:34;;;;;;;4.90;1.57;;;34.20;54.60;;;;;;4980413;28;20197;-83
2021/06/16 11:53:01;;;;;;;1.83;1.60;;;34.40;56.40;;;;;;4980577;28;20171;-82
2021/06/16 11:55:44;;;;;;;4.23;1.50;;;34.70;55.90;;;;;;4963482;28;20226;-81
2021/06/16 11:58:24;;;;;;;1.73;1.30;;;35.00;47.60;;;;;;4979164;28;20206;-82
2021/06/16 12:00:51;;;;;;;3.70;1.10;;;34.90;48.20;;;;;;4962426;28;20190;-83
2021/06/16 12:03:18;;;;;;;2.23;1.17;;;35.10;54.50;;;;;;4979894;28;20177;-83
2021/06/16 12:05:44;;;;;;;1.17;0.97;;;35.50;47.10;;;;;;4979744;28;20203;-83
2021/06/16 12:08:09;;;;;;;1.27;1.10;;;35.50;53.70;;;;;;4962615;28;20211;-82
2021/06/16 12:10:35;;;;;;;2.73;1.13;;;35.90;51.40;;;;;;4961808;28;20179;-83
2021/06/16 12:13:05;;;;;;;1.77;1.10;;;35.90;46.50;;;;;;4962019;28;20272;-83
2021/06/16 12:15:36;;;;;;;1.70;1.40;;;35.80;46.20;;;;;;4963001;28;20205;-82
2021/06/16 12:18:10;;;;;;;1.40;1.13;;;36.00;44.40;;;;;;4980371;28;20608;-83
2021/06/16 12:20:42;;;;;;;2.13;1.13;;;36.00;46.30;;;;;;4980929;28;20169;-84
2021/06/16 12:23:32;;;;;;;1.30;1.20;;;36.40;46.90;;;;;;4984986;28;20192;-82
2021/06/16 12:26:14;;;;;;;1.90;1.50;;;36.30;48.70;;;;;;4969448;28;20287;-82
2021/06/16 12:28:48;;;;;;;2.60;1.27;;;36.40;48.40;;;;;;4970939;28;20197;-83
2021/06/16 12:31:30;;;;;;;2.50;1.47;;;36.60;47.20;;;;;;4973633;28;20185;-84
2021/06/16 12:36:30;;;;;;;2.77;1.00;;;36.80;51.60;;;;;;4984777;28;20231;-84
2021/06/16 12:39:11;;;;;;;3.70;1.43;;;37.00;46.80;;;;;;4967131;28;20191;-84
2021/06/16 12:41:47;;;;;;;2.00;1.13;;;37.20;49.60;;;;;;4984853;28;20158;-83
2021/06/16 12:44:24;;;;;;;5.10;1.50;;;37.10;42.70;;;;;;4984046;28;20660;-84
2021/06/16 12:46:49;;;;;;;3.67;1.43;;;37.10;53.40;;;;;;4967425;28;20210;-83
2021/06/16 12:49:16;;;;;;;1.50;1.40;;;36.90;45.60;;;;;;4984615;28;20177;-82
2021/06/16 12:51:53;;;;;;;2.77;2.00;;;36.60;47.60;;;;;;4966822;28;20179;-83
2021/06/16 12:54:37;;;;;;;2.17;1.40;;;36.10;46.80;;;;;;4985055;28;20182;-83
2021/06/16 12:57:17;;;;;;;2.97;1.53;;;36.20;45.70;;;;;;4967292;28;20211;-82
2021/06/16 12:59:45;;;;;;;2.43;1.40;;;36.00;46.20;;;;;;4968190;28;20269;-83